sensor_id;sensor_type;location;lat;lon;timestamp;P1;durP1;ratioP1;P2;durP2;ratioP2
27893;SDS011;15240;50.812;4.792;2023-03-01T00:01:04;19.07;;;13.83;;
27893;SDS011;15240;50.812;4.792;2023-03-01T00:03:31;19.57;;;13.40;;
27893;SDS011;15240;50.812;4.792;2023-03-01T00:05:57;24.70;;;13.60;;
27893;SDS011;15240;50.812;4.792;2023-03-01T00:08:23;20.87;;;14.03;;
27893;SDS011;15240;50.812;4.792;2023-03-01T00:10:49;22.13;;;13.57;;
27893;SDS011;15240;50.812;4.792;2023-03-01T00:13:15;23.40;;;13.70;;
27893;SDS011;15240;50.812;4.792;2023-03-01T00:15:41;18.57;;;12.63;;
27893;SDS011;15240;50.812;4.792;2023-03-01T00:18:08;21.97;;;14.00;;
27893;SDS011;15240;50.812;4.792;2023-03-01T00:20:34;18.80;;;13.40;;
27893;SDS011;15240;50.812;4.792;2023-03-01T00:23:00;20.63;;;12.73;;
27893;SDS011;15240;50.812;4.792;2023-03-01T00:25:26;20.80;;;13.60;;
27893;SDS011;15240;50.812;4.792;2023-03-01T00:27:53;19.10;;;13.20;;
27893;SDS011;15240;50.812;4.792;2023-03-01T00:30:19;22.50;;;13.13;;
27893;SDS011;15240;50.812;4.792;2023-03-01T00:32:45;20.40;;;13.60;;
27893;SDS011;15240;50.812;4.792;2023-03-01T00:35:11;22.73;;;14.53;;
27893;SDS011;15240;50.812;4.792;2023-03-01T00:37:37;23.30;;;14.40;;
27893;SDS011;15240;50.812;4.792;2023-03-01T00:40:03;21.17;;;14.97;;
27893;SDS011;15240;50.812;4.792;2023-03-01T00:42:31;26.27;;;15.57;;
27893;SDS011;15240;50.812;4.792;2023-03-01T00:44:57;24.77;;;16.03;;
27893;SDS011;15240;50.812;4.792;2023-03-01T00:47:23;23.53;;;14.80;;
27893;SDS011;15240;50.812;4.792;2023-03-01T00:49:50;23.73;;;14.37;;
27893;SDS011;15240;50.812;4.792;2023-03-01T00:52:16;20.33;;;13.60;;
27893;SDS011;15240;50.812;4.792;2023-03-01T00:54:42;22.17;;;13.83;;
27893;SDS011;15240;50.812;4.792;2023-03-01T00:57:08;22.83;;;13.77;;
27893;SDS011;15240;50.812;4.792;2023-03-01T00:59:34;23.57;;;15.27;;
27893;SDS011;15240;50.812;4.792;2023-03-01T01:02:00;19.17;;;14.00;;
27893;SDS011;15240;50.812;4.792;2023-03-01T01:04:26;23.17;;;13.97;;
27893;SDS011;15240;50.812;4.792;2023-03-01T01:06:52;19.70;;;13.43;;
27893;SDS011;15240;50.812;4.792;2023-03-01T01:09:18;22.53;;;14.10;;
27893;SDS011;15240;50.812;4.792;2023-03-01T01:11:45;23.67;;;15.17;;
27893;SDS011;15240;50.812;4.792;2023-03-01T01:14:12;22.53;;;14.70;;
27893;SDS011;15240;50.812;4.792;2023-03-01T01:16:38;24.03;;;15.47;;
27893;SDS011;15240;50.812;4.792;2023-03-01T01:19:04;20.57;;;14.00;;
27893;SDS011;15240;50.812;4.792;2023-03-01T01:21:30;21.60;;;14.27;;
27893;SDS011;15240;50.812;4.792;2023-03-01T01:23:57;25.93;;;15.00;;
27893;SDS011;15240;50.812;4.792;2023-03-01T01:26:28;20.43;;;13.57;;
27893;SDS011;15240;50.812;4.792;2023-03-01T01:28:54;18.67;;;13.60;;
27893;SDS011;15240;50.812;4.792;2023-03-01T01:31:21;23.23;;;14.40;;
27893;SDS011;15240;50.812;4.792;2023-03-01T01:33:48;20.17;;;13.20;;
27893;SDS011;15240;50.812;4.792;2023-03-01T01:36:15;21.67;;;14.30;;
27893;SDS011;15240;50.812;4.792;2023-03-01T01:38:41;20.57;;;13.40;;
27893;SDS011;15240;50.812;4.792;2023-03-01T01:41:09;22.07;;;14.30;;
27893;SDS011;15240;50.812;4.792;2023-03-01T01:46:52;20.63;;;13.77;;
27893;SDS011;15240;50.812;4.792;2023-03-01T01:49:14;21.80;;;13.90;;
27893;SDS011;15240;50.812;4.792;2023-03-01T01:51:42;18.77;;;13.13;;
27893;SDS011;15240;50.812;4.792;2023-03-01T01:54:11;21.87;;;14.17;;
27893;SDS011;15240;50.812;4.792;2023-03-01T01:56:38;20.90;;;14.13;;
27893;SDS011;15240;50.812;4.792;2023-03-01T01:59:06;21.73;;;14.70;;
27893;SDS011;15240;50.812;4.792;2023-03-01T02:01:32;20.97;;;13.87;;
27893;SDS011;15240;50.812;4.792;2023-03-01T02:03:59;21.60;;;14.17;;
27893;SDS011;15240;50.812;4.792;2023-03-01T02:06:29;19.23;;;13.73;;
27893;SDS011;15240;50.812;4.792;2023-03-01T02:08:57;22.70;;;15.33;;
27893;SDS011;15240;50.812;4.792;2023-03-01T02:11:25;24.50;;;15.23;;
27893;SDS011;15240;50.812;4.792;2023-03-01T02:13:51;22.20;;;14.17;;
27893;SDS011;15240;50.812;4.792;2023-03-01T02:16:19;22.43;;;14.57;;
27893;SDS011;15240;50.812;4.792;2023-03-01T02:18:45;21.23;;;14.57;;
27893;SDS011;15240;50.812;4.792;2023-03-01T02:21:21;19.93;;;13.80;;
27893;SDS011;15240;50.812;4.792;2023-03-01T02:23:51;22.33;;;14.80;;
27893;SDS011;15240;50.812;4.792;2023-03-01T02:29:14;19.57;;;14.00;;
27893;SDS011;15240;50.812;4.792;2023-03-01T02:31:41;23.97;;;14.87;;
27893;SDS011;15240;50.812;4.792;2023-03-01T02:34:12;22.00;;;14.80;;
27893;SDS011;15240;50.812;4.792;2023-03-01T02:36:49;23.10;;;14.40;;
27893;SDS011;15240;50.812;4.792;2023-03-01T02:39:17;22.43;;;14.07;;
27893;SDS011;15240;50.812;4.792;2023-03-01T02:41:46;24.47;;;14.83;;
27893;SDS011;15240;50.812;4.792;2023-03-01T02:44:14;23.27;;;14.83;;
27893;SDS011;15240;50.812;4.792;2023-03-01T02:46:44;24.43;;;14.50;;
27893;SDS011;15240;50.812;4.792;2023-03-01T02:49:27;23.43;;;15.07;;
27893;SDS011;15240;50.812;4.792;2023-03-01T02:57:07;23.13;;;15.20;;
27893;SDS011;15240;50.812;4.792;2023-03-01T02:59:34;31.90;;;15.80;;
27893;SDS011;15240;50.812;4.792;2023-03-01T03:02:04;22.43;;;15.13;;
27893;SDS011;15240;50.812;4.792;2023-03-01T03:04:30;24.57;;;14.73;;
27893;SDS011;15240;50.812;4.792;2023-03-01T03:06:56;24.63;;;16.03;;
27893;SDS011;15240;50.812;4.792;2023-03-01T03:09:22;25.90;;;16.43;;
27893;SDS011;15240;50.812;4.792;2023-03-01T03:11:49;26.43;;;16.40;;
27893;SDS011;15240;50.812;4.792;2023-03-01T03:14:15;25.33;;;16.13;;
27893;SDS011;15240;50.812;4.792;2023-03-01T03:16:43;25.50;;;15.97;;
27893;SDS011;15240;50.812;4.792;2023-03-01T03:19:09;26.33;;;16.97;;
27893;SDS011;15240;50.812;4.792;2023-03-01T03:21:36;26.70;;;16.67;;
27893;SDS011;15240;50.812;4.792;2023-03-01T03:24:02;28.07;;;17.30;;
27893;SDS011;15240;50.812;4.792;2023-03-01T03:26:29;27.23;;;17.13;;
27893;SDS011;15240;50.812;4.792;2023-03-01T03:28:55;27.63;;;17.30;;
27893;SDS011;15240;50.812;4.792;2023-03-01T03:31:22;24.30;;;16.87;;
27893;SDS011;15240;50.812;4.792;2023-03-01T03:33:48;25.43;;;17.40;;
27893;SDS011;15240;50.812;4.792;2023-03-01T03:36:15;25.23;;;17.17;;
27893;SDS011;15240;50.812;4.792;2023-03-01T03:38:43;25.50;;;17.67;;
27893;SDS011;15240;50.812;4.792;2023-03-01T03:41:10;28.43;;;18.33;;
27893;SDS011;15240;50.812;4.792;2023-03-01T03:43:37;28.87;;;17.87;;
27893;SDS011;15240;50.812;4.792;2023-03-01T03:46:04;29.70;;;18.77;;
27893;SDS011;15240;50.812;4.792;2023-03-01T03:48:32;26.37;;;17.87;;
27893;SDS011;15240;50.812;4.792;2023-03-01T03:50:58;29.37;;;18.40;;
27893;SDS011;15240;50.812;4.792;2023-03-01T03:53:25;28.63;;;17.43;;
27893;SDS011;15240;50.812;4.792;2023-03-01T03:55:52;26.83;;;17.53;;
27893;SDS011;15240;50.812;4.792;2023-03-01T03:58:19;28.20;;;16.53;;
27893;SDS011;15240;50.812;4.792;2023-03-01T04:00:45;28.73;;;17.83;;
27893;SDS011;15240;50.812;4.792;2023-03-01T04:03:12;28.20;;;17.37;;
27893;SDS011;15240;50.812;4.792;2023-03-01T04:05:40;26.53;;;17.07;;
27893;SDS011;15240;50.812;4.792;2023-03-01T04:08:06;25.27;;;16.97;;
27893;SDS011;15240;50.812;4.792;2023-03-01T04:10:34;29.03;;;17.13;;
27893;SDS011;15240;50.812;4.792;2023-03-01T04:13:01;25.13;;;16.77;;
27893;SDS011;15240;50.812;4.792;2023-03-01T04:15:28;25.30;;;16.90;;
27893;SDS011;15240;50.812;4.792;2023-03-01T04:17:54;27.90;;;17.07;;
27893;SDS011;15240;50.812;4.792;2023-03-01T04:20:22;24.40;;;16.23;;
27893;SDS011;15240;50.812;4.792;2023-03-01T04:23:03;26.33;;;17.20;;
27893;SDS011;15240;50.812;4.792;2023-03-01T04:25:36;24.97;;;16.17;;
27893;SDS011;15240;50.812;4.792;2023-03-01T04:28:02;26.50;;;15.97;;
27893;SDS011;15240;50.812;4.792;2023-03-01T04:30:28;26.57;;;17.37;;
27893;SDS011;15240;50.812;4.792;2023-03-01T04:32:54;24.27;;;15.70;;
27893;SDS011;15240;50.812;4.792;2023-03-01T04:35:20;26.83;;;16.87;;
27893;SDS011;15240;50.812;4.792;2023-03-01T04:37:46;23.77;;;15.10;;
27893;SDS011;15240;50.812;4.792;2023-03-01T04:40:12;26.00;;;16.10;;
27893;SDS011;15240;50.812;4.792;2023-03-01T04:42:40;25.13;;;16.37;;
27893;SDS011;15240;50.812;4.792;2023-03-01T04:45:08;25.43;;;16.13;;
27893;SDS011;15240;50.812;4.792;2023-03-01T04:47:43;26.00;;;16.17;;
27893;SDS011;15240;50.812;4.792;2023-03-01T04:50:11;25.07;;;16.30;;
27893;SDS011;15240;50.812;4.792;2023-03-01T04:52:37;26.27;;;16.63;;
27893;SDS011;15240;50.812;4.792;2023-03-01T04:55:03;25.93;;;17.23;;
27893;SDS011;15240;50.812;4.792;2023-03-01T04:57:31;28.10;;;17.77;;
27893;SDS011;15240;50.812;4.792;2023-03-01T04:59:57;28.17;;;17.60;;
27893;SDS011;15240;50.812;4.792;2023-03-01T05:02:23;31.27;;;17.57;;
27893;SDS011;15240;50.812;4.792;2023-03-01T05:04:49;26.33;;;17.70;;
27893;SDS011;15240;50.812;4.792;2023-03-01T05:07:15;25.80;;;16.73;;
27893;SDS011;15240;50.812;4.792;2023-03-01T05:09:47;25.63;;;16.33;;
27893;SDS011;15240;50.812;4.792;2023-03-01T05:12:14;28.40;;;17.63;;
27893;SDS011;15240;50.812;4.792;2023-03-01T05:14:40;29.00;;;18.03;;
27893;SDS011;15240;50.812;4.792;2023-03-01T05:17:07;27.23;;;17.70;;
27893;SDS011;15240;50.812;4.792;2023-03-01T05:19:33;31.17;;;18.57;;
27893;SDS011;15240;50.812;4.792;2023-03-01T05:21:59;28.60;;;17.80;;
27893;SDS011;15240;50.812;4.792;2023-03-01T05:24:32;26.60;;;18.33;;
27893;SDS011;15240;50.812;4.792;2023-03-01T05:26:58;32.90;;;18.77;;
27893;SDS011;15240;50.812;4.792;2023-03-01T05:29:26;29.63;;;18.33;;
27893;SDS011;15240;50.812;4.792;2023-03-01T05:31:53;30.83;;;18.80;;
27893;SDS011;15240;50.812;4.792;2023-03-01T05:34:22;27.70;;;18.77;;
27893;SDS011;15240;50.812;4.792;2023-03-01T05:36:50;29.57;;;18.93;;
27893;SDS011;15240;50.812;4.792;2023-03-01T05:39:18;27.77;;;18.60;;
27893;SDS011;15240;50.812;4.792;2023-03-01T05:41:44;28.47;;;18.43;;
27893;SDS011;15240;50.812;4.792;2023-03-01T05:44:10;27.60;;;17.97;;
27893;SDS011;15240;50.812;4.792;2023-03-01T05:46:37;30.67;;;18.97;;
27893;SDS011;15240;50.812;4.792;2023-03-01T05:49:03;29.87;;;19.07;;
27893;SDS011;15240;50.812;4.792;2023-03-01T05:51:30;32.50;;;19.87;;
27893;SDS011;15240;50.812;4.792;2023-03-01T05:53:57;31.57;;;19.23;;
27893;SDS011;15240;50.812;4.792;2023-03-01T05:56:23;31.17;;;18.87;;
27893;SDS011;15240;50.812;4.792;2023-03-01T05:58:49;28.53;;;18.17;;
27893;SDS011;15240;50.812;4.792;2023-03-01T06:01:17;31.33;;;18.50;;
27893;SDS011;15240;50.812;4.792;2023-03-01T06:03:44;34.53;;;19.03;;
27893;SDS011;15240;50.812;4.792;2023-03-01T06:06:10;31.70;;;18.60;;
27893;SDS011;15240;50.812;4.792;2023-03-01T06:08:36;28.77;;;18.67;;
27893;SDS011;15240;50.812;4.792;2023-03-01T06:11:02;32.03;;;18.97;;
27893;SDS011;15240;50.812;4.792;2023-03-01T06:13:28;49.67;;;28.17;;
27893;SDS011;15240;50.812;4.792;2023-03-01T06:15:55;46.03;;;27.20;;
27893;SDS011;15240;50.812;4.792;2023-03-01T06:18:21;84.07;;;42.53;;
27893;SDS011;15240;50.812;4.792;2023-03-01T06:20:53;71.83;;;37.40;;
27893;SDS011;15240;50.812;4.792;2023-03-01T06:23:19;46.67;;;28.30;;
27893;SDS011;15240;50.812;4.792;2023-03-01T06:25:45;38.83;;;23.30;;
27893;SDS011;15240;50.812;4.792;2023-03-01T06:28:11;39.27;;;23.13;;
27893;SDS011;15240;50.812;4.792;2023-03-01T06:30:37;37.80;;;22.00;;
27893;SDS011;15240;50.812;4.792;2023-03-01T06:33:03;33.87;;;19.90;;
27893;SDS011;15240;50.812;4.792;2023-03-01T06:35:29;29.90;;;19.07;;
27893;SDS011;15240;50.812;4.792;2023-03-01T06:37:56;28.50;;;18.63;;
27893;SDS011;15240;50.812;4.792;2023-03-01T06:40:22;30.37;;;18.97;;
27893;SDS011;15240;50.812;4.792;2023-03-01T06:42:49;27.30;;;17.87;;
27893;SDS011;15240;50.812;4.792;2023-03-01T06:45:17;28.30;;;18.67;;
27893;SDS011;15240;50.812;4.792;2023-03-01T06:47:43;30.13;;;19.13;;
27893;SDS011;15240;50.812;4.792;2023-03-01T06:50:09;28.30;;;18.63;;
27893;SDS011;15240;50.812;4.792;2023-03-01T06:52:35;31.07;;;18.40;;
27893;SDS011;15240;50.812;4.792;2023-03-01T06:55:01;32.87;;;18.97;;
27893;SDS011;15240;50.812;4.792;2023-03-01T06:57:28;27.57;;;18.10;;
27893;SDS011;15240;50.812;4.792;2023-03-01T06:59:54;27.90;;;17.27;;
27893;SDS011;15240;50.812;4.792;2023-03-01T07:02:20;32.93;;;19.40;;
27893;SDS011;15240;50.812;4.792;2023-03-01T07:04:47;36.10;;;22.50;;
27893;SDS011;15240;50.812;4.792;2023-03-01T07:07:14;31.47;;;19.27;;
27893;SDS011;15240;50.812;4.792;2023-03-01T07:09:40;33.67;;;19.47;;
27893;SDS011;15240;50.812;4.792;2023-03-01T07:12:06;27.50;;;17.53;;
27893;SDS011;15240;50.812;4.792;2023-03-01T07:14:33;29.13;;;17.60;;
27893;SDS011;15240;50.812;4.792;2023-03-01T07:16:59;26.03;;;17.47;;
27893;SDS011;15240;50.812;4.792;2023-03-01T07:19:25;25.97;;;17.17;;
27893;SDS011;15240;50.812;4.792;2023-03-01T07:21:51;25.40;;;17.07;;
27893;SDS011;15240;50.812;4.792;2023-03-01T07:24:17;26.43;;;17.37;;
27893;SDS011;15240;50.812;4.792;2023-03-01T07:26:43;23.63;;;15.93;;
27893;SDS011;15240;50.812;4.792;2023-03-01T07:29:10;26.57;;;15.87;;
27893;SDS011;15240;50.812;4.792;2023-03-01T07:31:36;24.10;;;15.70;;
27893;SDS011;15240;50.812;4.792;2023-03-01T07:34:02;22.83;;;15.60;;
27893;SDS011;15240;50.812;4.792;2023-03-01T07:36:29;27.27;;;16.23;;
27893;SDS011;15240;50.812;4.792;2023-03-01T07:38:55;24.43;;;15.87;;
27893;SDS011;15240;50.812;4.792;2023-03-01T07:41:22;23.97;;;15.87;;
27893;SDS011;15240;50.812;4.792;2023-03-01T07:43:49;21.87;;;15.67;;
27893;SDS011;15240;50.812;4.792;2023-03-01T07:46:15;25.97;;;15.47;;
27893;SDS011;15240;50.812;4.792;2023-03-01T07:48:42;24.63;;;16.20;;
27893;SDS011;15240;50.812;4.792;2023-03-01T07:51:09;22.53;;;15.33;;
27893;SDS011;15240;50.812;4.792;2023-03-01T07:53:35;27.53;;;16.77;;
27893;SDS011;15240;50.812;4.792;2023-03-01T07:56:05;23.80;;;16.00;;
27893;SDS011;15240;50.812;4.792;2023-03-01T07:58:35;24.27;;;15.73;;
27893;SDS011;15240;50.812;4.792;2023-03-01T08:01:07;22.17;;;15.40;;
27893;SDS011;15240;50.812;4.792;2023-03-01T08:03:34;22.57;;;15.70;;
27893;SDS011;15240;50.812;4.792;2023-03-01T08:06:00;21.83;;;16.27;;
27893;SDS011;15240;50.812;4.792;2023-03-01T08:08:26;21.73;;;14.77;;
27893;SDS011;15240;50.812;4.792;2023-03-01T08:10:55;24.13;;;16.40;;
27893;SDS011;15240;50.812;4.792;2023-03-01T08:13:21;29.83;;;17.60;;
27893;SDS011;15240;50.812;4.792;2023-03-01T08:15:48;23.37;;;16.87;;
27893;SDS011;15240;50.812;4.792;2023-03-01T08:18:15;23.73;;;17.43;;
27893;SDS011;15240;50.812;4.792;2023-03-01T08:20:41;26.20;;;17.50;;
27893;SDS011;15240;50.812;4.792;2023-03-01T08:23:07;22.97;;;15.80;;
27893;SDS011;15240;50.812;4.792;2023-03-01T08:25:33;22.90;;;15.70;;
27893;SDS011;15240;50.812;4.792;2023-03-01T08:27:59;23.63;;;16.40;;
27893;SDS011;15240;50.812;4.792;2023-03-01T08:30:25;21.93;;;15.87;;
27893;SDS011;15240;50.812;4.792;2023-03-01T08:32:51;23.20;;;15.37;;
27893;SDS011;15240;50.812;4.792;2023-03-01T08:35:18;25.87;;;16.93;;
27893;SDS011;15240;50.812;4.792;2023-03-01T08:37:44;25.57;;;17.77;;
27893;SDS011;15240;50.812;4.792;2023-03-01T08:40:11;24.53;;;15.00;;
27893;SDS011;15240;50.812;4.792;2023-03-01T08:42:39;22.33;;;15.43;;
27893;SDS011;15240;50.812;4.792;2023-03-01T08:45:27;23.23;;;16.53;;
27893;SDS011;15240;50.812;4.792;2023-03-01T08:47:52;24.20;;;16.17;;
27893;SDS011;15240;50.812;4.792;2023-03-01T08:50:18;21.13;;;15.77;;
27893;SDS011;15240;50.812;4.792;2023-03-01T08:52:44;30.47;;;17.93;;
27893;SDS011;15240;50.812;4.792;2023-03-01T08:55:14;25.50;;;16.03;;
27893;SDS011;15240;50.812;4.792;2023-03-01T08:57:42;22.43;;;15.77;;
27893;SDS011;15240;50.812;4.792;2023-03-01T09:00:09;23.23;;;16.20;;
27893;SDS011;15240;50.812;4.792;2023-03-01T09:02:36;35.50;;;24.80;;
27893;SDS011;15240;50.812;4.792;2023-03-01T09:05:03;39.10;;;26.10;;
27893;SDS011;15240;50.812;4.792;2023-03-01T09:07:29;27.90;;;19.20;;
27893;SDS011;15240;50.812;4.792;2023-03-01T09:09:55;23.23;;;16.00;;
27893;SDS011;15240;50.812;4.792;2023-03-01T09:12:21;43.33;;;26.93;;
27893;SDS011;15240;50.812;4.792;2023-03-01T09:14:49;42.70;;;28.17;;
27893;SDS011;15240;50.812;4.792;2023-03-01T09:17:15;36.20;;;24.70;;
27893;SDS011;15240;50.812;4.792;2023-03-01T09:19:41;21.53;;;16.53;;
27893;SDS011;15240;50.812;4.792;2023-03-01T09:22:07;23.60;;;17.20;;
27893;SDS011;15240;50.812;4.792;2023-03-01T09:24:34;29.60;;;20.43;;
27893;SDS011;15240;50.812;4.792;2023-03-01T09:27:00;28.70;;;20.00;;
27893;SDS011;15240;50.812;4.792;2023-03-01T09:29:27;31.97;;;22.27;;
27893;SDS011;15240;50.812;4.792;2023-03-01T09:31:54;36.97;;;26.13;;
27893;SDS011;15240;50.812;4.792;2023-03-01T09:34:20;21.97;;;16.27;;
27893;SDS011;15240;50.812;4.792;2023-03-01T09:36:48;35.47;;;24.17;;
27893;SDS011;15240;50.812;4.792;2023-03-01T09:39:15;28.57;;;20.40;;
27893;SDS011;15240;50.812;4.792;2023-03-01T09:42:02;27.13;;;18.00;;
27893;SDS011;15240;50.812;4.792;2023-03-01T09:46:58;28.63;;;19.63;;
27893;SDS011;15240;50.812;4.792;2023-03-01T09:49:26;26.13;;;16.80;;
27893;SDS011;15240;50.812;4.792;2023-03-01T09:52:13;23.93;;;17.87;;
27893;SDS011;15240;50.812;4.792;2023-03-01T09:54:44;24.37;;;16.87;;
27893;SDS011;15240;50.812;4.792;2023-03-01T10:07:48;25.13;;;16.47;;
27893;SDS011;15240;50.812;4.792;2023-03-01T10:10:23;24.40;;;17.17;;
27893;SDS011;15240;50.812;4.792;2023-03-01T10:12:52;24.23;;;16.83;;
27893;SDS011;15240;50.812;4.792;2023-03-01T10:15:19;26.73;;;16.87;;
27893;SDS011;15240;50.812;4.792;2023-03-01T10:17:50;24.77;;;17.30;;
27893;SDS011;15240;50.812;4.792;2023-03-01T10:20:33;27.07;;;16.07;;
27893;SDS011;15240;50.812;4.792;2023-03-01T10:23:03;23.67;;;16.73;;
27893;SDS011;15240;50.812;4.792;2023-03-01T10:28:18;25.77;;;15.93;;
27893;SDS011;15240;50.812;4.792;2023-03-01T10:30:46;27.77;;;17.23;;
27893;SDS011;15240;50.812;4.792;2023-03-01T10:33:14;26.00;;;16.43;;
27893;SDS011;15240;50.812;4.792;2023-03-01T10:35:42;34.27;;;22.30;;
27893;SDS011;15240;50.812;4.792;2023-03-01T10:38:09;25.70;;;16.83;;
27893;SDS011;15240;50.812;4.792;2023-03-01T10:40:36;27.70;;;17.30;;
27893;SDS011;15240;50.812;4.792;2023-03-01T10:43:14;24.40;;;16.03;;
27893;SDS011;15240;50.812;4.792;2023-03-01T10:45:41;25.13;;;16.70;;
27893;SDS011;15240;50.812;4.792;2023-03-01T10:50:37;23.53;;;15.70;;
27893;SDS011;15240;50.812;4.792;2023-03-01T10:53:05;23.93;;;16.30;;
27893;SDS011;15240;50.812;4.792;2023-03-01T10:55:38;26.77;;;17.23;;
27893;SDS011;15240;50.812;4.792;2023-03-01T11:03:14;24.43;;;16.60;;
27893;SDS011;15240;50.812;4.792;2023-03-01T11:08:41;22.47;;;15.80;;
27893;SDS011;15240;50.812;4.792;2023-03-01T11:13:53;23.57;;;16.07;;
27893;SDS011;15240;50.812;4.792;2023-03-01T11:16:24;23.60;;;15.23;;
27893;SDS011;15240;50.812;4.792;2023-03-01T11:18:57;25.17;;;16.70;;
27893;SDS011;15240;50.812;4.792;2023-03-01T11:21:24;23.00;;;16.13;;
27893;SDS011;15240;50.812;4.792;2023-03-01T11:23:52;24.73;;;16.53;;
27893;SDS011;15240;50.812;4.792;2023-03-01T11:26:18;26.47;;;15.50;;
27893;SDS011;15240;50.812;4.792;2023-03-01T11:28:46;24.07;;;16.77;;
27893;SDS011;15240;50.812;4.792;2023-03-01T11:31:13;23.70;;;14.90;;
27893;SDS011;15240;50.812;4.792;2023-03-01T11:33:49;21.70;;;15.50;;
27893;SDS011;15240;50.812;4.792;2023-03-01T11:38:45;22.83;;;15.20;;
27893;SDS011;15240;50.812;4.792;2023-03-01T11:43:47;25.43;;;16.77;;
27893;SDS011;15240;50.812;4.792;2023-03-01T11:49:39;24.63;;;16.40;;
27893;SDS011;15240;50.812;4.792;2023-03-01T11:56:57;25.23;;;16.53;;
27893;SDS011;15240;50.812;4.792;2023-03-01T12:20:53;24.93;;;17.80;;
27893;SDS011;15240;50.812;4.792;2023-03-01T12:39:36;54.93;;;30.17;;
27893;SDS011;15240;50.812;4.792;2023-03-01T12:49:57;41.97;;;25.70;;
27893;SDS011;15240;50.812;4.792;2023-03-01T12:54:57;32.37;;;21.37;;
27893;SDS011;15240;50.812;4.792;2023-03-01T12:57:30;41.80;;;28.73;;
27893;SDS011;15240;50.812;4.792;2023-03-01T13:03:21;32.57;;;20.87;;
27893;SDS011;15240;50.812;4.792;2023-03-01T13:05:45;33.17;;;19.70;;
27893;SDS011;15240;50.812;4.792;2023-03-01T13:10:50;24.67;;;16.47;;
27893;SDS011;15240;50.812;4.792;2023-03-01T13:13:20;24.33;;;15.03;;
27893;SDS011;15240;50.812;4.792;2023-03-01T13:15:46;24.30;;;16.53;;
27893;SDS011;15240;50.812;4.792;2023-03-01T13:20:51;21.30;;;15.03;;
27893;SDS011;15240;50.812;4.792;2023-03-01T13:31:02;20.27;;;13.93;;
27893;SDS011;15240;50.812;4.792;2023-03-01T14:01:27;20.10;;;13.83;;
27893;SDS011;15240;50.812;4.792;2023-03-01T14:04:55;22.23;;;13.60;;
27893;SDS011;15240;50.812;4.792;2023-03-01T14:07:53;24.67;;;14.40;;
27893;SDS011;15240;50.812;4.792;2023-03-01T14:23:28;22.13;;;15.57;;
27893;SDS011;15240;50.812;4.792;2023-03-01T14:26:38;22.30;;;14.27;;
27893;SDS011;15240;50.812;4.792;2023-03-01T14:39:15;21.53;;;14.60;;
27893;SDS011;15240;50.812;4.792;2023-03-01T14:42:04;36.47;;;21.43;;
27893;SDS011;15240;50.812;4.792;2023-03-01T14:45:16;22.97;;;15.13;;
27893;SDS011;15240;50.812;4.792;2023-03-01T14:48:32;26.53;;;16.87;;
27893;SDS011;15240;50.812;4.792;2023-03-01T15:22:17;21.73;;;14.40;;
27893;SDS011;15240;50.812;4.792;2023-03-01T15:31:40;21.17;;;14.10;;
27893;SDS011;15240;50.812;4.792;2023-03-01T15:50:59;20.53;;;12.30;;
27893;SDS011;15240;50.812;4.792;2023-03-01T16:00:19;22.30;;;12.57;;
27893;SDS011;15240;50.812;4.792;2023-03-01T16:15:59;23.53;;;14.53;;
27893;SDS011;15240;50.812;4.792;2023-03-01T16:19:03;19.27;;;13.63;;
27893;SDS011;15240;50.812;4.792;2023-03-01T16:31:18;16.67;;;11.20;;
27893;SDS011;15240;50.812;4.792;2023-03-01T16:33:45;19.97;;;11.13;;
27893;SDS011;15240;50.812;4.792;2023-03-01T16:36:16;17.90;;;11.73;;
27893;SDS011;15240;50.812;4.792;2023-03-01T16:38:46;20.23;;;10.93;;
27893;SDS011;15240;50.812;4.792;2023-03-01T16:41:15;15.97;;;10.70;;
27893;SDS011;15240;50.812;4.792;2023-03-01T16:47:01;17.10;;;11.83;;
27893;SDS011;15240;50.812;4.792;2023-03-01T16:49:30;18.47;;;11.33;;
27893;SDS011;15240;50.812;4.792;2023-03-01T16:51:59;16.77;;;11.07;;
27893;SDS011;15240;50.812;4.792;2023-03-01T16:54:28;18.40;;;11.10;;
27893;SDS011;15240;50.812;4.792;2023-03-01T16:56:54;15.47;;;10.40;;
27893;SDS011;15240;50.812;4.792;2023-03-01T16:59:20;14.90;;;9.90;;
27893;SDS011;15240;50.812;4.792;2023-03-01T17:01:49;16.93;;;10.47;;
27893;SDS011;15240;50.812;4.792;2023-03-01T17:04:18;20.87;;;11.13;;
27893;SDS011;15240;50.812;4.792;2023-03-01T17:06:47;24.23;;;13.10;;
27893;SDS011;15240;50.812;4.792;2023-03-01T17:09:14;17.00;;;10.37;;
27893;SDS011;15240;50.812;4.792;2023-03-01T17:11:47;20.77;;;11.03;;
27893;SDS011;15240;50.812;4.792;2023-03-01T17:14:13;28.47;;;15.23;;
27893;SDS011;15240;50.812;4.792;2023-03-01T17:16:42;17.63;;;10.57;;
27893;SDS011;15240;50.812;4.792;2023-03-01T17:19:11;14.13;;;9.47;;
27893;SDS011;15240;50.812;4.792;2023-03-01T17:21:43;19.40;;;10.33;;
27893;SDS011;15240;50.812;4.792;2023-03-01T17:24:09;18.43;;;10.27;;
27893;SDS011;15240;50.812;4.792;2023-03-01T17:26:36;17.10;;;9.70;;
27893;SDS011;15240;50.812;4.792;2023-03-01T17:29:07;15.50;;;10.00;;
27893;SDS011;15240;50.812;4.792;2023-03-01T17:31:33;16.73;;;11.53;;
27893;SDS011;15240;50.812;4.792;2023-03-01T17:34:00;22.27;;;14.33;;
27893;SDS011;15240;50.812;4.792;2023-03-01T17:36:32;20.50;;;12.30;;
27893;SDS011;15240;50.812;4.792;2023-03-01T17:39:11;19.03;;;12.30;;
27893;SDS011;15240;50.812;4.792;2023-03-01T17:41:41;26.60;;;13.13;;
27893;SDS011;15240;50.812;4.792;2023-03-01T17:44:27;38.07;;;22.37;;
27893;SDS011;15240;50.812;4.792;2023-03-01T17:46:54;79.87;;;37.17;;
27893;SDS011;15240;50.812;4.792;2023-03-01T17:52:47;17.80;;;10.80;;
27893;SDS011;15240;50.812;4.792;2023-03-01T17:55:41;47.93;;;26.47;;
27893;SDS011;15240;50.812;4.792;2023-03-01T17:58:48;25.93;;;14.60;;
27893;SDS011;15240;50.812;4.792;2023-03-01T18:01:54;54.60;;;30.10;;
27893;SDS011;15240;50.812;4.792;2023-03-01T18:05:03;20.47;;;12.17;;
27893;SDS011;15240;50.812;4.792;2023-03-01T18:23:12;57.87;;;24.10;;
27893;SDS011;15240;50.812;4.792;2023-03-01T18:25:39;53.67;;;22.30;;
27893;SDS011;15240;50.812;4.792;2023-03-01T18:28:05;53.90;;;18.23;;
27893;SDS011;15240;50.812;4.792;2023-03-01T18:30:31;48.17;;;18.33;;
27893;SDS011;15240;50.812;4.792;2023-03-01T18:32:57;79.07;;;27.57;;
27893;SDS011;15240;50.812;4.792;2023-03-01T18:35:23;42.87;;;18.10;;
27893;SDS011;15240;50.812;4.792;2023-03-01T18:37:50;33.10;;;22.00;;
27893;SDS011;15240;50.812;4.792;2023-03-01T18:40:16;22.40;;;13.33;;
27893;SDS011;15240;50.812;4.792;2023-03-01T18:42:42;28.20;;;17.53;;
27893;SDS011;15240;50.812;4.792;2023-03-01T18:45:08;36.57;;;17.30;;
27893;SDS011;15240;50.812;4.792;2023-03-01T18:47:35;50.33;;;21.03;;
27893;SDS011;15240;50.812;4.792;2023-03-01T18:50:01;44.10;;;20.67;;
27893;SDS011;15240;50.812;4.792;2023-03-01T18:52:27;36.10;;;20.47;;
27893;SDS011;15240;50.812;4.792;2023-03-01T18:54:53;43.20;;;27.30;;
27893;SDS011;15240;50.812;4.792;2023-03-01T18:57:20;27.70;;;16.03;;
27893;SDS011;15240;50.812;4.792;2023-03-01T18:59:47;21.07;;;13.87;;
27893;SDS011;15240;50.812;4.792;2023-03-01T19:02:13;22.53;;;12.97;;
27893;SDS011;15240;50.812;4.792;2023-03-01T19:04:40;22.93;;;13.27;;
27893;SDS011;15240;50.812;4.792;2023-03-01T19:07:06;27.03;;;13.93;;